sensor_id;sensor_type;location;lat;lon;timestamp;P1;durP1;ratioP1;P2;durP2;ratioP2
14121;SDS011;7139;48.114;11.442;2023-09-08T00:02:23;10.33;;;7.00;;
14121;SDS011;7139;48.114;11.442;2023-09-08T00:04:51;8.47;;;7.27;;
14121;SDS011;7139;48.114;11.442;2023-09-08T00:07:18;8.37;;;7.30;;
14121;SDS011;7139;48.114;11.442;2023-09-08T00:09:44;7.53;;;6.83;;
14121;SDS011;7139;48.114;11.442;2023-09-08T00:12:11;8.20;;;7.27;;
14121;SDS011;7139;48.114;11.442;2023-09-08T00:14:40;7.53;;;6.83;;
14121;SDS011;7139;48.114;11.442;2023-09-08T00:17:06;7.80;;;7.00;;
14121;SDS011;7139;48.114;11.442;2023-09-08T00:19:33;7.90;;;6.60;;
14121;SDS011;7139;48.114;11.442;2023-09-08T00:22:00;7.50;;;6.73;;
14121;SDS011;7139;48.114;11.442;2023-09-08T00:24:28;7.53;;;6.80;;
14121;SDS011;7139;48.114;11.442;2023-09-08T00:26:54;7.37;;;6.60;;
14121;SDS011;7139;48.114;11.442;2023-09-08T00:29:21;6.83;;;6.13;;
14121;SDS011;7139;48.114;11.442;2023-09-08T00:31:49;7.47;;;6.23;;
14121;SDS011;7139;48.114;11.442;2023-09-08T00:34:16;7.30;;;6.23;;
14121;SDS011;7139;48.114;11.442;2023-09-08T00:36:43;6.93;;;6.30;;
14121;SDS011;7139;48.114;11.442;2023-09-08T00:39:10;8.07;;;6.80;;
14121;SDS011;7139;48.114;11.442;2023-09-08T00:41:36;8.40;;;6.63;;
14121;SDS011;7139;48.114;11.442;2023-09-08T00:44:03;9.47;;;7.17;;
14121;SDS011;7139;48.114;11.442;2023-09-08T00:46:30;7.27;;;6.50;;
14121;SDS011;7139;48.114;11.442;2023-09-08T00:48:58;7.50;;;6.47;;
14121;SDS011;7139;48.114;11.442;2023-09-08T00:51:26;7.43;;;6.67;;
14121;SDS011;7139;48.114;11.442;2023-09-08T00:53:53;6.90;;;6.30;;
14121;SDS011;7139;48.114;11.442;2023-09-08T00:56:20;7.90;;;6.53;;
14121;SDS011;7139;48.114;11.442;2023-09-08T00:58:47;7.20;;;6.60;;
14121;SDS011;7139;48.114;11.442;2023-09-08T01:01:14;7.40;;;6.70;;
14121;SDS011;7139;48.114;11.442;2023-09-08T01:03:42;7.10;;;6.40;;
14121;SDS011;7139;48.114;11.442;2023-09-08T01:06:10;7.03;;;6.37;;
14121;SDS011;7139;48.114;11.442;2023-09-08T01:08:38;7.00;;;6.30;;
14121;SDS011;7139;48.114;11.442;2023-09-08T01:11:05;8.07;;;6.37;;
14121;SDS011;7139;48.114;11.442;2023-09-08T01:13:32;6.80;;;6.07;;
14121;SDS011;7139;48.114;11.442;2023-09-08T01:15:59;8.57;;;6.40;;
14121;SDS011;7139;48.114;11.442;2023-09-08T01:18:27;7.03;;;6.43;;
14121;SDS011;7139;48.114;11.442;2023-09-08T01:23:59;7.00;;;6.30;;
14121;SDS011;7139;48.114;11.442;2023-09-08T01:26:45;6.80;;;6.13;;
14121;SDS011;7139;48.114;11.442;2023-09-08T01:29:12;6.67;;;6.17;;
14121;SDS011;7139;48.114;11.442;2023-09-08T01:31:42;7.07;;;6.40;;
14121;SDS011;7139;48.114;11.442;2023-09-08T01:34:08;7.20;;;6.50;;
14121;SDS011;7139;48.114;11.442;2023-09-08T01:36:36;6.50;;;5.97;;
14121;SDS011;7139;48.114;11.442;2023-09-08T01:39:02;6.73;;;6.00;;
14121;SDS011;7139;48.114;11.442;2023-09-08T01:41:30;8.90;;;5.80;;
14121;SDS011;7139;48.114;11.442;2023-09-08T01:43:58;6.87;;;6.23;;
14121;SDS011;7139;48.114;11.442;2023-09-08T01:46:30;6.90;;;6.20;;
14121;SDS011;7139;48.114;11.442;2023-09-08T01:48:56;6.53;;;5.93;;
14121;SDS011;7139;48.114;11.442;2023-09-08T01:51:23;6.43;;;5.93;;
14121;SDS011;7139;48.114;11.442;2023-09-08T01:53:50;7.23;;;6.30;;
14121;SDS011;7139;48.114;11.442;2023-09-08T01:56:17;6.67;;;6.07;;
14121;SDS011;7139;48.114;11.442;2023-09-08T01:58:43;6.47;;;5.97;;
14121;SDS011;7139;48.114;11.442;2023-09-08T02:01:11;6.63;;;5.93;;
14121;SDS011;7139;48.114;11.442;2023-09-08T02:03:38;7.03;;;6.43;;
14121;SDS011;7139;48.114;11.442;2023-09-08T02:06:05;7.33;;;6.53;;
14121;SDS011;7139;48.114;11.442;2023-09-08T02:08:32;6.77;;;6.17;;
14121;SDS011;7139;48.114;11.442;2023-09-08T02:10:58;6.50;;;5.83;;
14121;SDS011;7139;48.114;11.442;2023-09-08T02:13:25;7.13;;;6.43;;
14121;SDS011;7139;48.114;11.442;2023-09-08T02:15:52;6.33;;;5.73;;
14121;SDS011;7139;48.114;11.442;2023-09-08T02:18:20;6.90;;;6.10;;
14121;SDS011;7139;48.114;11.442;2023-09-08T02:20:47;6.80;;;6.10;;
14121;SDS011;7139;48.114;11.442;2023-09-08T02:23:14;6.87;;;6.17;;
14121;SDS011;7139;48.114;11.442;2023-09-08T02:25:40;7.17;;;6.23;;
14121;SDS011;7139;48.114;11.442;2023-09-08T02:28:07;7.13;;;5.80;;
14121;SDS011;7139;48.114;11.442;2023-09-08T02:30:34;7.60;;;6.10;;
14121;SDS011;7139;48.114;11.442;2023-09-08T02:33:02;7.67;;;6.27;;
14121;SDS011;7139;48.114;11.442;2023-09-08T02:35:35;8.90;;;6.13;;
14121;SDS011;7139;48.114;11.442;2023-09-08T02:38:03;6.90;;;6.30;;
14121;SDS011;7139;48.114;11.442;2023-09-08T02:40:29;6.57;;;5.97;;
14121;SDS011;7139;48.114;11.442;2023-09-08T02:42:59;6.90;;;6.20;;
14121;SDS011;7139;48.114;11.442;2023-09-08T02:45:25;6.53;;;5.93;;
14121;SDS011;7139;48.114;11.442;2023-09-08T02:47:52;6.47;;;5.80;;
14121;SDS011;7139;48.114;11.442;2023-09-08T02:50:19;8.17;;;6.60;;
14121;SDS011;7139;48.114;11.442;2023-09-08T02:52:47;6.97;;;6.20;;
14121;SDS011;7139;48.114;11.442;2023-09-08T02:55:15;7.00;;;6.30;;
14121;SDS011;7139;48.114;11.442;2023-09-08T02:57:42;9.03;;;6.33;;
14121;SDS011;7139;48.114;11.442;2023-09-08T03:00:09;6.90;;;6.30;;
14121;SDS011;7139;48.114;11.442;2023-09-08T03:02:36;7.13;;;6.53;;
14121;SDS011;7139;48.114;11.442;2023-09-08T03:05:03;7.77;;;6.27;;
14121;SDS011;7139;48.114;11.442;2023-09-08T03:07:30;6.87;;;6.10;;
14121;SDS011;7139;48.114;11.442;2023-09-08T03:10:00;7.03;;;6.33;;
14121;SDS011;7139;48.114;11.442;2023-09-08T03:12:26;6.27;;;5.77;;
14121;SDS011;7139;48.114;11.442;2023-09-08T03:14:54;8.37;;;6.47;;
14121;SDS011;7139;48.114;11.442;2023-09-08T03:17:21;7.37;;;6.50;;
14121;SDS011;7139;48.114;11.442;2023-09-08T03:19:47;7.07;;;6.37;;
14121;SDS011;7139;48.114;11.442;2023-09-08T03:22:14;8.60;;;6.50;;
14121;SDS011;7139;48.114;11.442;2023-09-08T03:24:41;7.23;;;6.53;;
14121;SDS011;7139;48.114;11.442;2023-09-08T03:27:09;7.10;;;6.23;;
14121;SDS011;7139;48.114;11.442;2023-09-08T03:29:36;6.90;;;6.07;;
14121;SDS011;7139;48.114;11.442;2023-09-08T03:32:03;8.30;;;6.47;;
14121;SDS011;7139;48.114;11.442;2023-09-08T03:34:30;8.50;;;6.63;;
14121;SDS011;7139;48.114;11.442;2023-09-08T03:36:57;6.33;;;5.83;;
14121;SDS011;7139;48.114;11.442;2023-09-08T03:39:23;6.83;;;6.23;;
14121;SDS011;7139;48.114;11.442;2023-09-08T03:41:50;7.43;;;6.77;;
14121;SDS011;7139;48.114;11.442;2023-09-08T03:44:18;7.03;;;6.33;;
14121;SDS011;7139;48.114;11.442;2023-09-08T03:46:45;6.83;;;6.13;;
14121;SDS011;7139;48.114;11.442;2023-09-08T03:49:12;6.87;;;6.17;;
14121;SDS011;7139;48.114;11.442;2023-09-08T03:51:38;6.63;;;6.00;;
14121;SDS011;7139;48.114;11.442;2023-09-08T03:54:06;6.80;;;6.13;;
14121;SDS011;7139;48.114;11.442;2023-09-08T03:56:32;7.70;;;6.23;;
14121;SDS011;7139;48.114;11.442;2023-09-08T03:58:59;6.90;;;5.73;;
14121;SDS011;7139;48.114;11.442;2023-09-08T04:01:27;7.50;;;6.33;;
14121;SDS011;7139;48.114;11.442;2023-09-08T04:03:54;6.87;;;6.17;;
14121;SDS011;7139;48.114;11.442;2023-09-08T04:06:21;7.20;;;6.10;;
14121;SDS011;7139;48.114;11.442;2023-09-08T04:08:47;8.43;;;6.07;;
14121;SDS011;7139;48.114;11.442;2023-09-08T04:11:14;7.43;;;5.97;;
14121;SDS011;7139;48.114;11.442;2023-09-08T04:13:41;7.17;;;6.27;;
14121;SDS011;7139;48.114;11.442;2023-09-08T04:16:07;7.30;;;6.00;;
14121;SDS011;7139;48.114;11.442;2023-09-08T04:18:36;8.13;;;6.37;;
14121;SDS011;7139;48.114;11.442;2023-09-08T04:21:03;6.77;;;6.07;;
14121;SDS011;7139;48.114;11.442;2023-09-08T04:23:32;7.10;;;5.90;;
14121;SDS011;7139;48.114;11.442;2023-09-08T04:25:59;6.80;;;5.93;;
14121;SDS011;7139;48.114;11.442;2023-09-08T04:28:26;7.77;;;6.10;;
14121;SDS011;7139;48.114;11.442;2023-09-08T04:30:52;7.63;;;6.40;;
14121;SDS011;7139;48.114;11.442;2023-09-08T04:33:19;10.63;;;7.17;;
14121;SDS011;7139;48.114;11.442;2023-09-08T04:35:47;13.47;;;6.67;;
14121;SDS011;7139;48.114;11.442;2023-09-08T04:38:14;10.47;;;6.20;;
14121;SDS011;7139;48.114;11.442;2023-09-08T04:40:41;8.23;;;6.33;;
14121;SDS011;7139;48.114;11.442;2023-09-08T04:43:07;9.27;;;6.23;;
14121;SDS011;7139;48.114;11.442;2023-09-08T04:45:34;7.67;;;6.13;;
14121;SDS011;7139;48.114;11.442;2023-09-08T04:48:01;8.07;;;6.13;;
14121;SDS011;7139;48.114;11.442;2023-09-08T04:50:28;6.70;;;6.10;;
14121;SDS011;7139;48.114;11.442;2023-09-08T04:52:56;9.03;;;6.27;;
14121;SDS011;7139;48.114;11.442;2023-09-08T04:55:23;9.10;;;6.83;;
14121;SDS011;7139;48.114;11.442;2023-09-08T04:57:50;6.40;;;5.80;;
14121;SDS011;7139;48.114;11.442;2023-09-08T05:00:16;7.50;;;6.27;;
14121;SDS011;7139;48.114;11.442;2023-09-08T05:02:43;7.83;;;6.40;;
14121;SDS011;7139;48.114;11.442;2023-09-08T05:05:10;7.17;;;6.33;;
14121;SDS011;7139;48.114;11.442;2023-09-08T05:07:37;7.93;;;6.57;;
14121;SDS011;7139;48.114;11.442;2023-09-08T05:10:05;7.90;;;6.83;;
14121;SDS011;7139;48.114;11.442;2023-09-08T05:12:34;7.23;;;6.60;;
14121;SDS011;7139;48.114;11.442;2023-09-08T05:15:00;7.23;;;6.53;;
14121;SDS011;7139;48.114;11.442;2023-09-08T05:17:32;6.97;;;6.27;;
14121;SDS011;7139;48.114;11.442;2023-09-08T05:19:59;7.10;;;6.47;;
14121;SDS011;7139;48.114;11.442;2023-09-08T05:22:25;7.90;;;7.17;;
14121;SDS011;7139;48.114;11.442;2023-09-08T05:24:52;7.40;;;6.57;;
14121;SDS011;7139;48.114;11.442;2023-09-08T05:27:20;7.60;;;6.80;;
14121;SDS011;7139;48.114;11.442;2023-09-08T05:29:47;7.27;;;6.57;;
14121;SDS011;7139;48.114;11.442;2023-09-08T05:32:14;7.90;;;7.10;;
14121;SDS011;7139;48.114;11.442;2023-09-08T05:34:41;7.00;;;6.10;;
14121;SDS011;7139;48.114;11.442;2023-09-08T05:37:08;10.47;;;7.20;;
14121;SDS011;7139;48.114;11.442;2023-09-08T05:39:35;9.53;;;7.20;;
14121;SDS011;7139;48.114;11.442;2023-09-08T05:42:01;8.80;;;7.37;;
14121;SDS011;7139;48.114;11.442;2023-09-08T05:44:30;7.87;;;6.43;;
14121;SDS011;7139;48.114;11.442;2023-09-08T05:46:56;8.70;;;6.97;;
14121;SDS011;7139;48.114;11.442;2023-09-08T05:49:23;7.97;;;7.17;;
14121;SDS011;7139;48.114;11.442;2023-09-08T05:51:50;8.43;;;6.83;;
14121;SDS011;7139;48.114;11.442;2023-09-08T05:54:17;8.17;;;6.97;;
14121;SDS011;7139;48.114;11.442;2023-09-08T05:56:43;9.23;;;6.87;;
14121;SDS011;7139;48.114;11.442;2023-09-08T05:59:10;8.13;;;6.63;;
14121;SDS011;7139;48.114;11.442;2023-09-08T06:01:38;7.33;;;6.30;;
14121;SDS011;7139;48.114;11.442;2023-09-08T06:04:05;8.53;;;7.63;;
14121;SDS011;7139;48.114;11.442;2023-09-08T06:06:32;10.30;;;7.90;;
14121;SDS011;7139;48.114;11.442;2023-09-08T06:08:59;8.70;;;7.50;;
14121;SDS011;7139;48.114;11.442;2023-09-08T06:11:25;13.33;;;7.60;;
14121;SDS011;7139;48.114;11.442;2023-09-08T06:13:51;14.97;;;8.20;;
14121;SDS011;7139;48.114;11.442;2023-09-08T06:16:23;14.20;;;6.93;;
14121;SDS011;7139;48.114;11.442;2023-09-08T06:18:52;14.83;;;7.30;;
14121;SDS011;7139;48.114;11.442;2023-09-08T06:21:18;15.73;;;7.53;;
14121;SDS011;7139;48.114;11.442;2023-09-08T06:23:45;13.77;;;7.70;;
14121;SDS011;7139;48.114;11.442;2023-09-08T06:26:12;11.67;;;8.03;;
14121;SDS011;7139;48.114;11.442;2023-09-08T06:28:39;12.03;;;8.00;;
14121;SDS011;7139;48.114;11.442;2023-09-08T06:31:08;11.43;;;7.60;;
14121;SDS011;7139;48.114;11.442;2023-09-08T06:33:35;8.33;;;7.47;;
14121;SDS011;7139;48.114;11.442;2023-09-08T06:36:03;9.67;;;8.27;;
14121;SDS011;7139;48.114;11.442;2023-09-08T06:38:30;8.10;;;7.33;;
14121;SDS011;7139;48.114;11.442;2023-09-08T06:40:57;10.27;;;9.27;;
14121;SDS011;7139;48.114;11.442;2023-09-08T06:43:24;10.73;;;8.50;;
14121;SDS011;7139;48.114;11.442;2023-09-08T06:45:50;11.07;;;9.13;;
14121;SDS011;7139;48.114;11.442;2023-09-08T06:48:17;9.20;;;8.30;;
14121;SDS011;7139;48.114;11.442;2023-09-08T06:50:44;13.27;;;9.30;;
14121;SDS011;7139;48.114;11.442;2023-09-08T06:53:12;11.87;;;9.33;;
14121;SDS011;7139;48.114;11.442;2023-09-08T06:55:38;11.37;;;10.13;;
14121;SDS011;7139;48.114;11.442;2023-09-08T06:58:05;12.27;;;9.60;;
14121;SDS011;7139;48.114;11.442;2023-09-08T07:00:32;11.37;;;9.83;;
14121;SDS011;7139;48.114;11.442;2023-09-08T07:02:59;11.77;;;10.23;;
14121;SDS011;7139;48.114;11.442;2023-09-08T07:05:27;11.70;;;9.97;;
14121;SDS011;7139;48.114;11.442;2023-09-08T07:07:53;11.53;;;10.33;;
14121;SDS011;7139;48.114;11.442;2023-09-08T07:10:21;12.10;;;10.83;;
14121;SDS011;7139;48.114;11.442;2023-09-08T07:12:48;12.33;;;11.03;;
14121;SDS011;7139;48.114;11.442;2023-09-08T07:15:15;14.63;;;11.23;;
14121;SDS011;7139;48.114;11.442;2023-09-08T07:17:42;14.03;;;11.37;;
14121;SDS011;7139;48.114;11.442;2023-09-08T07:20:09;12.83;;;11.43;;
14121;SDS011;7139;48.114;11.442;2023-09-08T07:22:37;11.00;;;9.93;;
14121;SDS011;7139;48.114;11.442;2023-09-08T07:25:04;12.20;;;10.97;;
14121;SDS011;7139;48.114;11.442;2023-09-08T07:27:33;11.90;;;10.80;;
14121;SDS011;7139;48.114;11.442;2023-09-08T07:30:00;12.70;;;11.23;;
14121;SDS011;7139;48.114;11.442;2023-09-08T07:32:27;12.07;;;10.80;;
14121;SDS011;7139;48.114;11.442;2023-09-08T07:34:53;11.93;;;10.93;;
14121;SDS011;7139;48.114;11.442;2023-09-08T07:37:20;17.43;;;11.00;;
14121;SDS011;7139;48.114;11.442;2023-09-08T07:39:48;13.87;;;11.23;;
14121;SDS011;7139;48.114;11.442;2023-09-08T07:42:14;12.03;;;10.93;;
14121;SDS011;7139;48.114;11.442;2023-09-08T07:44:43;10.90;;;9.80;;
14121;SDS011;7139;48.114;11.442;2023-09-08T07:47:11;12.07;;;10.27;;
14121;SDS011;7139;48.114;11.442;2023-09-08T07:49:38;11.93;;;10.83;;
14121;SDS011;7139;48.114;11.442;2023-09-08T07:52:04;12.40;;;10.93;;
14121;SDS011;7139;48.114;11.442;2023-09-08T07:54:32;11.57;;;10.37;;
14121;SDS011;7139;48.114;11.442;2023-09-08T07:56:59;11.23;;;10.23;;
14121;SDS011;7139;48.114;11.442;2023-09-08T07:59:25;12.77;;;9.67;;
14121;SDS011;7139;48.114;11.442;2023-09-08T08:01:54;11.20;;;9.80;;
14121;SDS011;7139;48.114;11.442;2023-09-08T08:04:20;10.73;;;9.50;;
14121;SDS011;7139;48.114;11.442;2023-09-08T08:06:47;10.10;;;9.13;;
14121;SDS011;7139;48.114;11.442;2023-09-08T08:09:14;10.13;;;9.23;;
14121;SDS011;7139;48.114;11.442;2023-09-08T08:11:41;10.13;;;8.90;;
14121;SDS011;7139;48.114;11.442;2023-09-08T08:14:08;10.13;;;9.07;;
14121;SDS011;7139;48.114;11.442;2023-09-08T08:16:34;10.37;;;9.30;;
14121;SDS011;7139;48.114;11.442;2023-09-08T08:19:02;9.33;;;8.27;;
14121;SDS011;7139;48.114;11.442;2023-09-08T08:21:29;11.27;;;8.93;;
14121;SDS011;7139;48.114;11.442;2023-09-08T08:23:56;11.37;;;8.10;;
14121;SDS011;7139;48.114;11.442;2023-09-08T08:26:23;9.40;;;8.23;;
14121;SDS011;7139;48.114;11.442;2023-09-08T08:28:53;9.10;;;7.10;;
14121;SDS011;7139;48.114;11.442;2023-09-08T08:31:20;12.30;;;8.80;;
14121;SDS011;7139;48.114;11.442;2023-09-08T08:33:46;10.23;;;8.20;;
14121;SDS011;7139;48.114;11.442;2023-09-08T08:36:15;9.00;;;8.07;;
14121;SDS011;7139;48.114;11.442;2023-09-08T08:38:41;9.67;;;8.40;;
14121;SDS011;7139;48.114;11.442;2023-09-08T08:41:08;10.07;;;8.10;;
14121;SDS011;7139;48.114;11.442;2023-09-08T08:43:35;10.77;;;7.33;;
14121;SDS011;7139;48.114;11.442;2023-09-08T08:46:02;9.83;;;7.67;;
14121;SDS011;7139;48.114;11.442;2023-09-08T08:48:30;8.40;;;7.53;;
14121;SDS011;7139;48.114;11.442;2023-09-08T08:50:58;10.32;;;7.88;;
14121;SDS011;7139;48.114;11.442;2023-09-08T08:53:27;10.57;;;7.10;;
14121;SDS011;7139;48.114;11.442;2023-09-08T08:55:55;10.90;;;7.65;;
14121;SDS011;7139;48.114;11.442;2023-09-08T08:58:24;18.15;;;8.35;;
14121;SDS011;7139;48.114;11.442;2023-09-08T09:00:52;9.45;;;7.60;;
14121;SDS011;7139;48.114;11.442;2023-09-08T09:03:22;8.32;;;7.50;;
14121;SDS011;7139;48.114;11.442;2023-09-08T09:05:50;10.07;;;7.43;;
14121;SDS011;7139;48.114;11.442;2023-09-08T09:08:17;11.40;;;7.30;;
14121;SDS011;7139;48.114;11.442;2023-09-08T09:10:46;9.57;;;7.25;;
14121;SDS011;7139;48.114;11.442;2023-09-08T09:13:14;9.38;;;7.45;;
14121;SDS011;7139;48.114;11.442;2023-09-08T09:15:43;10.27;;;7.22;;
14121;SDS011;7139;48.114;11.442;2023-09-08T09:18:11;9.63;;;6.93;;
14121;SDS011;7139;48.114;11.442;2023-09-08T09:20:38;9.07;;;7.40;;
14121;SDS011;7139;48.114;11.442;2023-09-08T09:23:06;9.27;;;7.72;;
14121;SDS011;7139;48.114;11.442;2023-09-08T09:25:33;9.05;;;7.68;;
14121;SDS011;7139;48.114;11.442;2023-09-08T09:28:02;7.40;;;6.72;;
14121;SDS011;7139;48.114;11.442;2023-09-08T09:30:47;9.90;;;7.25;;
14121;SDS011;7139;48.114;11.442;2023-09-08T09:33:26;8.05;;;7.28;;
14121;SDS011;7139;48.114;11.442;2023-09-08T09:36:05;8.25;;;7.30;;
14121;SDS011;7139;48.114;11.442;2023-09-08T09:38:41;8.50;;;6.82;;
14121;SDS011;7139;48.114;11.442;2023-09-08T09:41:20;7.43;;;6.72;;
14121;SDS011;7139;48.114;11.442;2023-09-08T09:44:04;9.00;;;7.15;;
14121;SDS011;7139;48.114;11.442;2023-09-08T09:46:44;7.85;;;7.05;;
14121;SDS011;7139;48.114;11.442;2023-09-08T09:49:12;8.50;;;6.93;;
14121;SDS011;7139;48.114;11.442;2023-09-08T09:51:42;8.10;;;6.30;;
14121;SDS011;7139;48.114;11.442;2023-09-08T09:54:10;8.40;;;6.75;;
14121;SDS011;7139;48.114;11.442;2023-09-08T09:56:38;7.70;;;6.90;;
14121;SDS011;7139;48.114;11.442;2023-09-08T09:59:09;6.78;;;6.18;;
14121;SDS011;7139;48.114;11.442;2023-09-08T10:01:37;7.55;;;6.68;;
14121;SDS011;7139;48.114;11.442;2023-09-08T10:04:07;8.70;;;6.85;;
14121;SDS011;7139;48.114;11.442;2023-09-08T10:06:35;10.30;;;6.97;;
14121;SDS011;7139;48.114;11.442;2023-09-08T10:09:04;9.02;;;6.65;;
14121;SDS011;7139;48.114;11.442;2023-09-08T10:11:34;7.35;;;6.57;;
14121;SDS011;7139;48.114;11.442;2023-09-08T10:14:07;7.30;;;6.60;;
14121;SDS011;7139;48.114;11.442;2023-09-08T10:16:37;7.03;;;5.90;;
14121;SDS011;7139;48.114;11.442;2023-09-08T10:19:07;7.07;;;6.35;;
14121;SDS011;7139;48.114;11.442;2023-09-08T10:21:36;8.23;;;6.00;;
14121;SDS011;7139;48.114;11.442;2023-09-08T10:24:08;9.50;;;5.97;;
14121;SDS011;7139;48.114;11.442;2023-09-08T10:26:43;7.22;;;6.53;;
14121;SDS011;7139;48.114;11.442;2023-09-08T10:29:13;8.13;;;6.53;;
14121;SDS011;7139;48.114;11.442;2023-09-08T10:31:40;8.60;;;6.63;;
14121;SDS011;7139;48.114;11.442;2023-09-08T10:34:09;6.85;;;6.25;;
14121;SDS011;7139;48.114;11.442;2023-09-08T10:36:36;6.88;;;6.22;;
14121;SDS011;7139;48.114;11.442;2023-09-08T10:44:58;7.63;;;6.80;;
14121;SDS011;7139;48.114;11.442;2023-09-08T10:47:33;8.05;;;6.63;;
14121;SDS011;7139;48.114;11.442;2023-09-08T10:50:25;7.65;;;6.57;;
14121;SDS011;7139;48.114;11.442;2023-09-08T10:53:03;7.00;;;6.40;;
14121;SDS011;7139;48.114;11.442;2023-09-08T10:55:34;7.00;;;6.40;;
14121;SDS011;7139;48.114;11.442;2023-09-08T10:58:03;7.47;;;6.70;;
14121;SDS011;7139;48.114;11.442;2023-09-08T11:00:41;6.95;;;6.25;;
14121;SDS011;7139;48.114;11.442;2023-09-08T11:03:09;7.70;;;7.00;;
14121;SDS011;7139;48.114;11.442;2023-09-08T11:05:37;7.07;;;6.38;;
14121;SDS011;7139;48.114;11.442;2023-09-08T11:08:04;6.80;;;6.15;;
14121;SDS011;7139;48.114;11.442;2023-09-08T11:10:31;7.30;;;6.25;;
14121;SDS011;7139;48.114;11.442;2023-09-08T11:12:59;9.00;;;6.40;;
14121;SDS011;7139;48.114;11.442;2023-09-08T11:15:28;7.68;;;6.50;;
14121;SDS011;7139;48.114;11.442;2023-09-08T11:17:56;7.43;;;6.20;;
14121;SDS011;7139;48.114;11.442;2023-09-08T11:20:30;8.18;;;6.80;;
14121;SDS011;7139;48.114;11.442;2023-09-08T11:22:57;6.75;;;6.15;;
14121;SDS011;7139;48.114;11.442;2023-09-08T11:25:24;7.35;;;6.65;;
14121;SDS011;7139;48.114;11.442;2023-09-08T11:27:51;7.32;;;6.57;;
14121;SDS011;7139;48.114;11.442;2023-09-08T11:30:18;7.03;;;6.22;;
14121;SDS011;7139;48.114;11.442;2023-09-08T11:32:44;8.38;;;6.78;;
14121;SDS011;7139;48.114;11.442;2023-09-08T11:35:13;7.10;;;5.90;;
14121;SDS011;7139;48.114;11.442;2023-09-08T11:37:41;7.28;;;6.57;;
14121;SDS011;7139;48.114;11.442;2023-09-08T11:40:08;6.65;;;6.13;;
14121;SDS011;7139;48.114;11.442;2023-09-08T11:42:37;6.53;;;5.93;;
14121;SDS011;7139;48.114;11.442;2023-09-08T11:45:08;7.35;;;6.13;;
14121;SDS011;7139;48.114;11.442;2023-09-08T11:47:39;6.57;;;6.00;;
14121;SDS011;7139;48.114;11.442;2023-09-08T11:50:07;6.78;;;6.13;;
14121;SDS011;7139;48.114;11.442;2023-09-08T11:52:36;7.47;;;6.78;;
14121;SDS011;7139;48.114;11.442;2023-09-08T11:55:04;7.60;;;6.90;;
14121;SDS011;7139;48.114;11.442;2023-09-08T11:57:31;7.63;;;6.93;;
14121;SDS011;7139;48.114;11.442;2023-09-08T11:59:58;7.07;;;6.38;;
14121;SDS011;7139;48.114;11.442;2023-09-08T12:02:26;7.63;;;6.93;;
14121;SDS011;7139;48.114;11.442;2023-09-08T12:04:53;7.60;;;6.60;;
14121;SDS011;7139;48.114;11.442;2023-09-08T12:07:20;7.22;;;6.47;;
14121;SDS011;7139;48.114;11.442;2023-09-08T12:09:48;7.82;;;7.07;;
14121;SDS011;7139;48.114;11.442;2023-09-08T12:12:14;7.25;;;6.18;;
14121;SDS011;7139;48.114;11.442;2023-09-08T12:14:41;7.75;;;7.05;;
14121;SDS011;7139;48.114;11.442;2023-09-08T12:17:09;7.10;;;6.50;;
14121;SDS011;7139;48.114;11.442;2023-09-08T12:19:36;7.03;;;6.40;;
14121;SDS011;7139;48.114;11.442;2023-09-08T12:22:03;7.00;;;6.38;;
14121;SDS011;7139;48.114;11.442;2023-09-08T12:24:57;7.03;;;6.47;;
14121;SDS011;7139;48.114;11.442;2023-09-08T12:27:24;7.80;;;6.90;;
14121;SDS011;7139;48.114;11.442;2023-09-08T12:29:51;7.82;;;6.38;;
14121;SDS011;7139;48.114;11.442;2023-09-08T12:32:19;7.38;;;6.78;;
14121;SDS011;7139;48.114;11.442;2023-09-08T12:34:46;6.93;;;6.32;;
14121;SDS011;7139;48.114;11.442;2023-09-08T12:37:12;8.13;;;7.45;;
14121;SDS011;7139;48.114;11.442;2023-09-08T12:39:39;7.40;;;6.75;;
14121;SDS011;7139;48.114;11.442;2023-09-08T12:42:07;7.38;;;6.68;;
14121;SDS011;7139;48.114;11.442;2023-09-08T12:44:34;7.00;;;6.30;;
14121;SDS011;7139;48.114;11.442;2023-09-08T12:47:01;8.02;;;7.32;;
14121;SDS011;7139;48.114;11.442;2023-09-08T12:49:27;8.27;;;7.15;;
14121;SDS011;7139;48.114;11.442;2023-09-08T12:51:54;6.97;;;6.47;;
14121;SDS011;7139;48.114;11.442;2023-09-08T12:54:21;8.52;;;6.85;;
14121;SDS011;7139;48.114;11.442;2023-09-08T12:56:48;7.10;;;6.50;;
14121;SDS011;7139;48.114;11.442;2023-09-08T12:59:17;7.72;;;6.80;;
14121;SDS011;7139;48.114;11.442;2023-09-08T13:01:44;7.78;;;6.97;;
14121;SDS011;7139;48.114;11.442;2023-09-08T13:04:10;8.30;;;7.50;;
14121;SDS011;7139;48.114;11.442;2023-09-08T13:06:37;7.45;;;6.78;;
14121;SDS011;7139;48.114;11.442;2023-09-08T13:09:04;7.72;;;7.03;;
14121;SDS011;7139;48.114;11.442;2023-09-08T13:11:30;7.78;;;6.85;;
14121;SDS011;7139;48.114;11.442;2023-09-08T13:13:57;7.25;;;6.63;;
14121;SDS011;7139;48.114;11.442;2023-09-08T13:16:25;7.10;;;6.40;;
14121;SDS011;7139;48.114;11.442;2023-09-08T13:18:52;6.72;;;6.13;;
14121;SDS011;7139;48.114;11.442;2023-09-08T13:21:19;7.40;;;6.70;;
14121;SDS011;7139;48.114;11.442;2023-09-08T13:23:45;7.50;;;6.80;;
14121;SDS011;7139;48.114;11.442;2023-09-08T13:26:12;7.32;;;6.60;;
14121;SDS011;7139;48.114;11.442;2023-09-08T13:28:39;6.88;;;6.28;;
14121;SDS011;7139;48.114;11.442;2023-09-08T13:31:06;7.35;;;6.75;;
14121;SDS011;7139;48.114;11.442;2023-09-08T13:33:34;7.13;;;6.53;;
14121;SDS011;7139;48.114;11.442;2023-09-08T13:36:00;6.82;;;6.13;;
14121;SDS011;7139;48.114;11.442;2023-09-08T13:38:27;7.10;;;6.40;;
14121;SDS011;7139;48.114;11.442;2023-09-08T13:40:54;7.38;;;6.68;;
14121;SDS011;7139;48.114;11.442;2023-09-08T13:43:21;7.00;;;6.30;;
14121;SDS011;7139;48.114;11.442;2023-09-08T13:45:47;6.68;;;6.07;;
14121;SDS011;7139;48.114;11.442;2023-09-08T13:48:14;7.32;;;6.72;;
14121;SDS011;7139;48.114;11.442;2023-09-08T13:50:42;6.57;;;6.07;;
14121;SDS011;7139;48.114;11.442;2023-09-08T13:53:09;6.70;;;6.10;;
14121;SDS011;7139;48.114;11.442;2023-09-08T13:55:36;7.20;;;6.40;;
14121;SDS011;7139;48.114;11.442;2023-09-08T13:58:03;6.97;;;6.35;;
14121;SDS011;7139;48.114;11.442;2023-09-08T14:00:29;7.75;;;7.05;;
14121;SDS011;7139;48.114;11.442;2023-09-08T14:02:56;7.15;;;6.57;;
14121;SDS011;7139;48.114;11.442;2023-09-08T14:05:23;6.88;;;6.30;;
14121;SDS011;7139;48.114;11.442;2023-09-08T14:07:51;7.28;;;6.57;;
14121;SDS011;7139;48.114;11.442;2023-09-08T14:10:18;6.78;;;6.13;;
14121;SDS011;7139;48.114;11.442;2023-09-08T14:12:44;6.18;;;5.68;;
14121;SDS011;7139;48.114;11.442;2023-09-08T14:15:11;6.68;;;6.00;;
14121;SDS011;7139;48.114;11.442;2023-09-08T14:17:40;6.60;;;6.07;;
14121;SDS011;7139;48.114;11.442;2023-09-08T14:20:07;6.50;;;5.90;;
14121;SDS011;7139;48.114;11.442;2023-09-08T14:22:35;8.07;;;6.53;;
14121;SDS011;7139;48.114;11.442;2023-09-08T14:25:05;6.68;;;6.07;;
14121;SDS011;7139;48.114;11.442;2023-09-08T14:27:32;6.78;;;5.70;;
14121;SDS011;7139;48.114;11.442;2023-09-08T14:30:00;7.13;;;6.35;;
14121;SDS011;7139;48.114;11.442;2023-09-08T14:32:28;6.18;;;5.65;;
14121;SDS011;7139;48.114;11.442;2023-09-08T14:34:55;6.75;;;6.00;;
14121;SDS011;7139;48.114;11.442;2023-09-08T14:37:22;6.72;;;6.22;;
14121;SDS011;7139;48.114;11.442;2023-09-08T14:39:49;6.53;;;5.80;;
14121;SDS011;7139;48.114;11.442;2023-09-08T14:42:17;7.07;;;6.35;;
14121;SDS011;7139;48.114;11.442;2023-09-08T14:44:44;6.60;;;5.82;;
14121;SDS011;7139;48.114;11.442;2023-09-08T14:47:10;6.68;;;6.10;;
14121;SDS011;7139;48.114;11.442;2023-09-08T14:49:37;6.82;;;6.22;;
14121;SDS011;7139;48.114;11.442;2023-09-08T14:52:05;6.53;;;5.93;;
14121;SDS011;7139;48.114;11.442;2023-09-08T14:54:31;7.55;;;6.38;;
14121;SDS011;7139;48.114;11.442;2023-09-08T14:56:58;6.70;;;6.05;;
14121;SDS011;7139;48.114;11.442;2023-09-08T14:59:26;6.50;;;5.88;;